createdAt,value
2018-05-11T00:02:27.437Z,99342.72
2018-05-11T00:04:55.929Z,99340.66
2018-05-11T00:07:24.393Z,99350.02
2018-05-11T00:09:52.912Z,99342.48
2018-05-11T00:12:21.368Z,99344.98
2018-05-11T00:14:49.831Z,99345.14
2018-05-11T00:17:18.307Z,99351.47
2018-05-11T00:19:46.792Z,99355.63
2018-05-11T00:22:15.245Z,99353.25
2018-05-11T00:24:43.740Z,99353.57
2018-05-11T00:27:12.196Z,99355.63
2018-05-11T00:29:40.653Z,99352.84
2018-05-11T00:32:09.142Z,99355.99
2018-05-11T00:34:37.596Z,99355.67
2018-05-11T00:37:06.128Z,99357.89
2018-05-11T00:39:34.585Z,99362.77
2018-05-11T00:42:03.076Z,99360.19
2018-05-11T00:44:31.571Z,99365.75
2018-05-11T00:47:00.041Z,99370.22
2018-05-11T00:49:28.536Z,99371.67
2018-05-11T00:51:57.043Z,99371.71
2018-05-11T00:54:25.613Z,99372.59
2018-05-11T00:56:54.030Z,99367.75
2018-05-11T00:59:22.555Z,99377.47
2018-05-11T01:01:51.033Z,99386.98
2018-05-11T01:04:19.532Z,99395.62
2018-05-11T01:06:48.002Z,99392.72
2018-05-11T01:09:16.529Z,99389.78
2018-05-11T01:11:45.038Z,99393.61
2018-05-11T01:14:13.495Z,99397.80
2018-05-11T01:16:42.045Z,99400.42
2018-05-11T01:19:10.530Z,99403.36
2018-05-11T01:21:39.037Z,99399.05
2018-05-11T01:24:07.600Z,99403.81
2018-05-11T01:26:36.096Z,99395.50
2018-05-11T01:29:04.585Z,99400.98
2018-05-11T01:31:33.096Z,99404.98
2018-05-11T01:34:01.627Z,99406.71
2018-05-11T01:36:30.089Z,99408.27
2018-05-11T01:38:58.596Z,99406.78
2018-05-11T01:41:27.133Z,99417.17
2018-05-11T01:43:55.621Z,99423.28
2018-05-11T01:46:24.125Z,99426.98
2018-05-11T01:48:52.654Z,99416.10
2018-05-11T01:51:21.111Z,99434.56
2018-05-11T01:53:49.669Z,99436.80
2018-05-11T01:56:18.146Z,99437.23
2018-05-11T01:58:46.600Z,99442.46
2018-05-11T02:01:15.089Z,99441.88
2018-05-11T02:03:43.560Z,99441.58
2018-05-11T02:06:12.101Z,99443.03
2018-05-11T02:08:40.576Z,99443.80
2018-05-11T02:11:09.065Z,99435.78
2018-05-11T02:13:37.560Z,99431.97
2018-05-11T02:16:06.050Z,99439.19
2018-05-11T02:18:34.519Z,99447.95
2018-05-11T02:21:03.008Z,99444.55
2018-05-11T02:23:31.456Z,99447.22
2018-05-11T02:25:59.970Z,99446.88
2018-05-11T02:28:28.449Z,99452.21
2018-05-11T02:30:56.940Z,99460.77
2018-05-11T02:33:25.383Z,99453.94
2018-05-11T02:35:53.849Z,99464.67
2018-05-11T02:38:22.340Z,99464.68
2018-05-11T02:40:50.784Z,99467.97
2018-05-11T02:43:19.300Z,99468.47
2018-05-11T02:45:47.784Z,99466.72
2018-05-11T02:48:16.237Z,99471.38
2018-05-11T02:50:44.826Z,99473.95
2018-05-11T02:53:13.253Z,99478.70
2018-05-11T02:55:41.695Z,99481.44
2018-05-11T02:58:10.189Z,99480.86
2018-05-11T03:00:38.669Z,99483.45
2018-05-11T03:03:07.158Z,99483.03
2018-05-11T03:05:35.700Z,99481.05
2018-05-11T03:08:04.213Z,99486.62
2018-05-11T03:10:32.822Z,99477.75
2018-05-11T03:13:01.225Z,99492.20
2018-05-11T03:15:29.684Z,99487.45
2018-05-11T03:17:58.164Z,99492.86
2018-05-11T03:20:26.620Z,99487.50
2018-05-11T03:22:55.136Z,99495.66
2018-05-11T03:25:23.634Z,99503.47
2018-05-11T03:27:52.132Z,99505.13
2018-05-11T03:30:20.584Z,99502.56
2018-05-11T03:32:49.105Z,99509.00
2018-05-11T03:35:17.574Z,99514.34
2018-05-11T03:37:46.065Z,99512.83
2018-05-11T03:40:14.553Z,99513.79
2018-05-11T03:42:43.048Z,99504.10
2018-05-11T03:45:11.510Z,99519.80
2018-05-11T03:47:40.012Z,99523.34
2018-05-11T03:50:09.365Z,99516.51
2018-05-11T03:52:37.848Z,99518.03
2018-05-11T03:55:06.318Z,99523.59
2018-05-11T03:57:34.813Z,99520.46
2018-05-11T04:00:03.425Z,99527.23
2018-05-11T04:02:43.523Z,99528.17
2018-05-11T04:08:27.730Z,99528.66
2018-05-11T04:10:56.182Z,99519.75
2018-05-11T04:13:24.694Z,99527.23
2018-05-11T04:15:53.160Z,99528.19
2018-05-11T04:18:21.681Z,99520.69
2018-05-11T04:20:50.259Z,99527.10
2018-05-11T04:23:18.830Z,99514.88
2018-05-11T04:25:47.292Z,99528.02
2018-05-11T04:28:15.797Z,99527.28
2018-05-11T04:30:44.292Z,99536.24
2018-05-11T04:33:12.785Z,99531.34
2018-05-11T04:35:41.269Z,99531.47
2018-05-11T04:38:09.717Z,99546.27
2018-05-11T04:40:38.220Z,99550.66
2018-05-11T04:43:06.697Z,99554.65
2018-05-11T04:45:35.170Z,99561.55
2018-05-11T04:48:03.722Z,99562.47
2018-05-11T04:50:32.177Z,99568.64
2018-05-11T04:53:00.664Z,99567.79
2018-05-11T04:55:29.181Z,99563.52
2018-05-11T04:57:57.722Z,99560.55
2018-05-11T05:00:26.168Z,99564.74
2018-05-11T05:02:54.662Z,99564.18
2018-05-11T05:05:23.164Z,99576.43
2018-05-11T05:07:51.680Z,99579.65
2018-05-11T05:10:20.148Z,99581.96
2018-05-11T05:12:48.593Z,99584.04
2018-05-11T05:15:17.108Z,99585.15
2018-05-11T05:17:45.552Z,99586.84
2018-05-11T05:20:14.022Z,99586.76
2018-05-11T05:22:42.473Z,99594.58
2018-05-11T05:25:10.965Z,99604.69
2018-05-11T05:27:39.432Z,99600.13
2018-05-11T05:30:07.929Z,99604.33
2018-05-11T05:32:36.436Z,99601.03
2018-05-11T05:35:04.893Z,99604.41
2018-05-11T05:37:33.472Z,99605.50
2018-05-11T05:40:01.979Z,99600.86
2018-05-11T05:42:30.437Z,99594.02
2018-05-11T05:44:58.950Z,99603.42
2018-05-11T05:47:27.417Z,99585.92
2018-05-11T05:49:55.923Z,99612.41
2018-05-11T05:52:24.435Z,99612.15
2018-05-11T05:54:52.948Z,99598.45
2018-05-11T05:57:21.460Z,99597.14
2018-05-11T05:59:49.991Z,99605.71
2018-05-11T06:02:18.551Z,99610.66
2018-05-11T06:04:47.008Z,99610.78
2018-05-11T06:07:15.496Z,99613.93
2018-05-11T06:09:44.129Z,99614.41
2018-05-11T06:12:12.605Z,99593.09
2018-05-11T06:14:41.057Z,99618.56
2018-05-11T06:17:09.519Z,99620.42
2018-05-11T06:19:38.001Z,99623.54
2018-05-11T06:22:06.583Z,99624.10
2018-05-11T06:24:35.005Z,99635.36
2018-05-11T06:27:03.505Z,99633.38
2018-05-11T06:29:31.980Z,99638.95
2018-05-11T06:32:00.479Z,99630.94
2018-05-11T06:34:29.190Z,99651.67
2018-05-11T06:36:57.638Z,99650.22
2018-05-11T06:39:26.163Z,99648.19
2018-05-11T06:41:54.754Z,99646.91
2018-05-11T06:44:23.296Z,99655.14
2018-05-11T06:46:51.801Z,99663.84
2018-05-11T06:49:20.361Z,99658.03
2018-05-11T06:51:48.885Z,99657.52
2018-05-11T06:54:17.417Z,99652.66
2018-05-11T06:56:45.874Z,99663.84
2018-05-11T06:59:14.378Z,99666.48
2018-05-11T07:01:42.871Z,99655.00
2018-05-11T07:04:11.384Z,99668.78
2018-05-11T07:06:39.879Z,99649.41
2018-05-11T07:09:08.392Z,99668.27
2018-05-11T07:11:36.912Z,99659.41
2018-05-11T07:14:05.405Z,99667.02
2018-05-11T07:16:33.901Z,99671.06
2018-05-11T07:19:02.401Z,99670.69
2018-05-11T07:21:30.857Z,99673.17
2018-05-11T07:23:59.373Z,99675.08
2018-05-11T07:26:27.862Z,99679.23
2018-05-11T07:28:56.317Z,99683.65
2018-05-11T07:31:24.775Z,99683.78
2018-05-11T07:33:53.275Z,99692.86
2018-05-11T07:36:21.798Z,99690.24
2018-05-11T07:38:50.264Z,99680.14
2018-05-11T07:41:18.779Z,99696.92
2018-05-11T07:43:47.248Z,99691.68
2018-05-11T07:46:15.678Z,99695.52
2018-05-11T07:48:44.196Z,99695.05
2018-05-11T07:51:12.685Z,99692.05
2018-05-11T07:53:41.200Z,99681.70
2018-05-11T07:56:09.685Z,99691.34
2018-05-11T07:58:38.130Z,99689.84
2018-05-11T08:01:06.592Z,99695.45
2018-05-11T08:03:35.058Z,99700.34
2018-05-11T08:06:03.540Z,99700.87
2018-05-11T08:08:32.034Z,99698.13
2018-05-11T08:11:00.532Z,99698.90
2018-05-11T08:13:29.024Z,99691.39
2018-05-11T08:15:57.538Z,99688.25
2018-05-11T08:18:26.010Z,99691.61
2018-05-11T08:20:54.516Z,99685.78
2018-05-11T08:23:23.007Z,99687.32
2018-05-11T08:25:51.533Z,99692.73
2018-05-11T08:28:20.013Z,99683.97
2018-05-11T08:30:48.481Z,99688.46
2018-05-11T08:33:17.021Z,99685.00
2018-05-11T08:35:45.616Z,99671.63
2018-05-11T08:38:14.109Z,99678.28
2018-05-11T08:40:42.641Z,99684.90
2018-05-11T08:43:11.112Z,99682.83
2018-05-11T08:45:39.616Z,99681.67
2018-05-11T08:48:08.115Z,99680.27
2018-05-11T08:50:36.704Z,99684.53
2018-05-11T08:53:05.133Z,99689.02
2018-05-11T08:55:33.672Z,99680.86
2018-05-11T08:58:02.150Z,99681.95
2018-05-11T09:00:32.091Z,99681.48
2018-05-11T09:03:00.733Z,99687.77
2018-05-11T09:05:29.213Z,99690.42
2018-05-11T09:07:57.735Z,99693.70
2018-05-11T09:10:26.222Z,99680.39
2018-05-11T09:12:54.741Z,99692.12
2018-05-11T09:15:23.246Z,99685.75
2018-05-11T09:17:51.761Z,99692.25
2018-05-11T09:20:20.280Z,99680.16
2018-05-11T09:22:48.808Z,99689.17
2018-05-11T09:25:17.311Z,99689.91
2018-05-11T09:27:45.846Z,99688.30
2018-05-11T09:30:14.317Z,99693.39
2018-05-11T09:32:42.835Z,99695.23
2018-05-11T09:35:11.349Z,99655.09
2018-05-11T09:37:39.824Z,99705.42
2018-05-11T09:40:08.372Z,99697.15
2018-05-11T09:42:36.852Z,99698.68
2018-05-11T09:45:05.361Z,99664.66
2018-05-11T09:47:33.900Z,99695.91
2018-05-11T09:50:02.412Z,99690.42
2018-05-11T09:52:31.084Z,99691.97
2018-05-11T09:54:59.749Z,99676.14
2018-05-11T09:57:28.309Z,99693.84
2018-05-11T09:59:56.812Z,99693.27
2018-05-11T10:02:25.309Z,99701.43
2018-05-11T10:04:53.820Z,99679.31
2018-05-11T10:07:22.332Z,99691.44
2018-05-11T10:09:50.792Z,99693.39
2018-05-11T10:12:19.260Z,99692.24
2018-05-11T10:14:47.712Z,99703.77
2018-05-11T10:17:16.202Z,99692.48
2018-05-11T10:19:44.705Z,99692.98
2018-05-11T10:22:13.222Z,99689.77
2018-05-11T10:24:41.689Z,99692.68
2018-05-11T10:27:10.197Z,99685.17
2018-05-11T10:29:38.678Z,99696.19
2018-05-11T10:32:07.194Z,99694.82
2018-05-11T10:34:35.742Z,99686.61
2018-05-11T10:37:04.252Z,99695.00
2018-05-11T10:39:32.774Z,99690.43
2018-05-11T10:42:01.244Z,99688.33
2018-05-11T10:44:29.743Z,99680.27
2018-05-11T10:46:58.190Z,99684.58
2018-05-11T10:49:26.658Z,99667.64
2018-05-11T10:51:55.160Z,99672.55
2018-05-11T10:54:23.620Z,99665.41
2018-05-11T10:56:52.164Z,99671.42
2018-05-11T10:59:21.609Z,99665.07
2018-05-11T11:01:50.112Z,99664.92
2018-05-11T11:04:18.574Z,99657.83
2018-05-11T11:06:47.057Z,99656.39
2018-05-11T11:09:15.511Z,99658.23
2018-05-11T11:11:44.100Z,99668.00
2018-05-11T11:14:12.554Z,99667.75
2018-05-11T11:16:41.044Z,99663.54
2018-05-11T11:19:09.544Z,99662.15
2018-05-11T11:21:38.008Z,99626.27
2018-05-11T11:24:06.468Z,99664.48
2018-05-11T11:26:34.988Z,99662.39
2018-05-11T11:29:03.461Z,99663.36
2018-05-11T11:31:31.964Z,99651.23
2018-05-11T11:34:00.417Z,99633.69
2018-05-11T11:36:28.876Z,99647.73
2018-05-11T11:38:57.376Z,99637.23
2018-05-11T11:41:25.881Z,99620.70
2018-05-11T11:43:54.412Z,99628.63
2018-05-11T11:46:22.916Z,99628.77
2018-05-11T11:48:51.409Z,99629.73
2018-05-11T11:51:19.960Z,99626.00
2018-05-11T11:53:48.423Z,99616.24
2018-05-11T11:56:16.926Z,99596.28
2018-05-11T11:58:45.444Z,99613.38
2018-05-11T12:01:13.961Z,99621.66
2018-05-11T12:03:42.468Z,99628.20
2018-05-11T12:06:10.969Z,99620.50
2018-05-11T12:08:39.442Z,99605.55
2018-05-11T12:11:07.948Z,99611.87
2018-05-11T12:13:36.409Z,99608.31
2018-05-11T12:16:04.912Z,99608.86
2018-05-11T12:18:33.373Z,99615.81
2018-05-11T12:21:01.879Z,99609.63
2018-05-11T12:23:30.323Z,99616.28
2018-05-11T12:25:58.833Z,99617.79
2018-05-11T12:28:27.302Z,99602.09
2018-05-11T12:30:55.816Z,99612.95
2018-05-11T12:33:24.296Z,99608.20
2018-05-11T12:35:52.773Z,99604.05
2018-05-11T12:38:21.276Z,99613.23
2018-05-11T12:40:49.736Z,99606.29
2018-05-11T12:43:18.242Z,99603.92
2018-05-11T12:45:46.780Z,99605.70
2018-05-11T12:48:15.252Z,99602.71
2018-05-11T12:50:43.756Z,99592.64
2018-05-11T12:53:12.268Z,99591.91
2018-05-11T12:55:40.796Z,99579.86
2018-05-11T12:58:09.294Z,99575.12
2018-05-11T13:00:37.865Z,99562.12
2018-05-11T13:03:06.365Z,99554.14
2018-05-11T13:05:34.873Z,99546.39
2018-05-11T13:08:03.372Z,99555.84
2018-05-11T13:10:31.869Z,99569.39
2018-05-11T13:13:00.453Z,99587.02
2018-05-11T13:15:28.903Z,99587.41
2018-05-11T13:17:57.413Z,99596.03
2018-05-11T13:20:25.893Z,99591.33
2018-05-11T13:22:54.362Z,99587.73
2018-05-11T13:25:22.866Z,99594.36
2018-05-11T13:27:51.403Z,99598.36
2018-05-11T13:30:19.887Z,99612.42
2018-05-11T13:32:48.424Z,99613.31
2018-05-11T13:35:16.900Z,99642.80
2018-05-11T13:37:45.370Z,99669.10
2018-05-11T13:40:13.869Z,99699.44
2018-05-11T13:42:42.338Z,99744.77
2018-05-11T13:45:10.936Z,99712.16
2018-05-11T13:47:39.391Z,99727.67
2018-05-11T13:50:07.862Z,99723.61
2018-05-11T13:52:36.411Z,99719.56
2018-05-11T13:55:04.872Z,99711.00
2018-05-11T13:57:33.378Z,99709.56
2018-05-11T14:00:01.870Z,99743.53
2018-05-11T14:02:30.423Z,99751.78
2018-05-11T14:04:58.893Z,99760.09
2018-05-11T14:07:27.370Z,99773.19
2018-05-11T14:09:55.883Z,99793.44
2018-05-11T14:12:24.357Z,99807.91
2018-05-11T14:14:52.827Z,99821.56
2018-05-11T14:17:21.345Z,99807.09
2018-05-11T14:19:49.853Z,99796.31
2018-05-11T14:22:18.377Z,99764.15
2018-05-11T14:24:47.012Z,99766.92
2018-05-11T14:27:15.413Z,99763.03
2018-05-11T14:29:43.872Z,99759.73
2018-05-11T14:32:12.375Z,99747.09
2018-05-11T14:34:40.868Z,99747.34
2018-05-11T14:37:09.350Z,99734.15
2018-05-11T14:39:37.807Z,99749.16
2018-05-11T14:42:06.264Z,99745.34
2018-05-11T14:44:34.777Z,99741.66
2018-05-11T14:47:03.241Z,99745.31
2018-05-11T14:49:31.746Z,99738.77
2018-05-11T14:52:00.301Z,99748.09
2018-05-11T14:54:28.783Z,99748.38
2018-05-11T14:56:57.240Z,99756.42
2018-05-11T14:59:25.736Z,99752.27
2018-05-11T15:01:54.213Z,99751.62
2018-05-11T15:04:22.698Z,99739.55
2018-05-11T15:06:51.195Z,99741.29
2018-05-11T15:09:19.697Z,99745.16
2018-05-11T15:11:48.149Z,99742.90
2018-05-11T15:14:16.648Z,99736.66
2018-05-11T15:16:45.149Z,99725.70
2018-05-11T15:19:13.592Z,99727.84
2018-05-11T15:21:42.048Z,99725.23
2018-05-11T15:24:10.548Z,99706.73
2018-05-11T15:26:39.009Z,99714.98
2018-05-11T15:29:07.492Z,99709.75
2018-05-11T15:31:35.976Z,99713.34
2018-05-11T15:34:04.452Z,99702.03
2018-05-11T15:36:32.946Z,99692.77
2018-05-11T15:39:01.456Z,99700.09
2018-05-11T15:41:29.933Z,99697.59
2018-05-11T15:43:58.449Z,99700.20
2018-05-11T15:46:26.917Z,99697.70
2018-05-11T15:48:55.416Z,99697.26
2018-05-11T15:51:23.880Z,99702.02
2018-05-11T15:53:52.332Z,99704.97
2018-05-11T15:56:20.833Z,99711.50
2018-05-11T15:58:49.284Z,99709.45
2018-05-11T16:01:17.776Z,99723.55
2018-05-11T16:03:47.028Z,99727.51
2018-05-11T16:06:15.544Z,99723.42
2018-05-11T16:08:44.041Z,99723.05
2018-05-11T16:11:12.473Z,99719.61
2018-05-11T16:13:40.960Z,99707.34
2018-05-11T16:16:09.414Z,99722.36
2018-05-11T16:18:37.947Z,99719.41
2018-05-11T16:21:06.409Z,99723.00
2018-05-11T16:23:34.912Z,99721.67
2018-05-11T16:26:03.416Z,99715.48
2018-05-11T16:28:31.892Z,99727.20
2018-05-11T16:31:00.385Z,99731.77
2018-05-11T16:33:28.845Z,99723.92
2018-05-11T16:35:57.344Z,99721.51
2018-05-11T16:38:25.844Z,99723.91
2018-05-11T16:40:54.329Z,99719.30
2018-05-11T16:43:22.778Z,99729.73
2018-05-11T16:45:51.284Z,99727.63
2018-05-11T16:48:19.737Z,99726.58
2018-05-11T16:50:48.252Z,99730.58
2018-05-11T16:53:16.737Z,99722.19
2018-05-11T16:55:45.256Z,99729.59
2018-05-11T16:58:13.712Z,99731.77
2018-05-11T17:00:42.180Z,99750.44
2018-05-11T17:03:10.675Z,99741.67
2018-05-11T17:05:39.124Z,99745.06
2018-05-11T17:08:07.674Z,99744.78
2018-05-11T17:10:36.140Z,99737.23
2018-05-11T17:13:04.628Z,99745.58
2018-05-11T17:15:33.077Z,99734.55
2018-05-11T17:18:01.577Z,99742.69
2018-05-11T17:20:30.038Z,99748.87
2018-05-11T17:22:58.520Z,99756.39
2018-05-11T17:25:26.998Z,99757.27
2018-05-11T17:27:55.502Z,99755.17
2018-05-11T17:30:24.005Z,99761.41
2018-05-11T17:32:52.561Z,99764.13
2018-05-11T17:35:21.074Z,99760.45
2018-05-11T17:37:49.552Z,99756.92
2018-05-11T17:40:18.037Z,99763.97
2018-05-11T17:42:46.543Z,99753.89
2018-05-11T17:45:15.016Z,99755.73
2018-05-11T17:47:43.520Z,99743.57
2018-05-11T17:50:11.976Z,99754.64
2018-05-11T17:52:40.442Z,99752.61
2018-05-11T17:55:08.934Z,99762.66
2018-05-11T17:57:37.398Z,99764.13
2018-05-11T18:00:05.901Z,99760.48
2018-05-11T18:02:34.360Z,99776.66
2018-05-11T18:05:02.845Z,99784.09
2018-05-11T18:07:31.336Z,99788.37
2018-05-11T18:09:59.801Z,99779.55
2018-05-11T18:12:28.357Z,99777.55
2018-05-11T18:14:56.824Z,99791.44
2018-05-11T18:17:25.317Z,99793.49
2018-05-11T18:19:53.783Z,99795.42
2018-05-11T18:22:22.256Z,99796.65
2018-05-11T18:24:50.767Z,99785.02
2018-05-11T18:27:19.224Z,99792.69
2018-05-11T18:29:47.720Z,99788.47
2018-05-11T18:32:16.229Z,99788.92
2018-05-11T18:34:44.692Z,99791.84
2018-05-11T18:37:13.188Z,99797.26
2018-05-11T18:39:41.685Z,99804.11
2018-05-11T18:42:10.220Z,99810.45
2018-05-11T18:44:38.704Z,99804.34
2018-05-11T18:47:07.200Z,99808.92
2018-05-11T18:49:35.691Z,99830.01
2018-05-11T18:52:04.260Z,99836.33
2018-05-11T18:54:32.966Z,99842.39
2018-05-11T18:57:01.246Z,99840.59
2018-05-11T18:59:29.730Z,99839.25
2018-05-11T19:01:58.237Z,99846.01
2018-05-11T19:04:26.753Z,99847.83
2018-05-11T19:06:55.223Z,99851.36
2018-05-11T19:09:23.709Z,99857.11
2018-05-11T19:11:52.208Z,99855.63
2018-05-11T19:14:20.716Z,99849.72
2018-05-11T19:16:49.237Z,99839.05
2018-05-11T19:19:17.730Z,99857.65
2018-05-11T19:21:46.248Z,99855.72
2018-05-11T19:24:14.748Z,99859.95
2018-05-11T19:26:43.220Z,99873.95
2018-05-11T19:29:11.709Z,99909.20
2018-05-11T19:31:40.217Z,99898.39
2018-05-11T19:34:08.708Z,99884.87
2018-05-11T19:36:37.177Z,99868.27
2018-05-11T19:39:06.601Z,99879.50
2018-05-11T19:41:35.073Z,99895.39
2018-05-11T19:44:03.596Z,99900.62
2018-05-11T19:46:32.208Z,99901.88
2018-05-11T19:49:00.672Z,99896.52
2018-05-11T19:51:29.161Z,99883.38
2018-05-11T19:53:57.649Z,99885.84
2018-05-11T19:56:26.113Z,99879.40
2018-05-11T19:58:54.617Z,99862.45
2018-05-11T20:01:23.060Z,99885.60
2018-05-11T20:03:51.520Z,99886.72
2018-05-11T20:06:20.002Z,99866.85
2018-05-11T20:08:48.485Z,99876.60
2018-05-11T20:11:16.984Z,99872.90
2018-05-11T20:13:45.448Z,99870.16
2018-05-11T20:16:13.945Z,99863.16
2018-05-11T20:18:42.470Z,99848.78
2018-05-11T20:21:10.937Z,99843.45
2018-05-11T20:23:39.462Z,99842.90
2018-05-11T20:26:07.968Z,99847.02
2018-05-11T20:28:36.428Z,99838.79
2018-05-11T20:31:04.934Z,99845.64
2018-05-11T20:33:33.456Z,99847.97
2018-05-11T20:36:01.916Z,99843.32
2018-05-11T20:38:30.452Z,99848.27
2018-05-11T20:40:58.904Z,99852.66
2018-05-11T20:43:27.399Z,99851.57
2018-05-11T20:45:55.887Z,99852.66
2018-05-11T20:48:24.376Z,99857.47
2018-05-11T20:50:52.875Z,99859.11
2018-05-11T20:53:21.347Z,99859.79
2018-05-11T20:55:49.849Z,99851.16
2018-05-11T20:58:18.313Z,99857.45
2018-05-11T21:00:46.804Z,99862.41
2018-05-11T21:03:15.305Z,99872.11
2018-05-11T21:05:43.819Z,99868.66
2018-05-11T21:08:12.292Z,99865.00
2018-05-11T21:10:40.796Z,99859.36
2018-05-11T21:13:09.240Z,99852.38
2018-05-11T21:15:37.705Z,99851.70
2018-05-11T21:18:06.197Z,99849.53
2018-05-11T21:20:34.705Z,99851.03
2018-05-11T21:23:03.172Z,99844.61
2018-05-11T21:25:31.621Z,99844.44
2018-05-11T21:28:00.133Z,99830.48
2018-05-11T21:30:28.593Z,99839.41
2018-05-11T21:32:57.085Z,99839.81
2018-05-11T21:35:25.584Z,99839.81
2018-05-11T21:37:54.135Z,99846.51
2018-05-11T21:40:22.632Z,99844.19
2018-05-11T21:42:51.077Z,99837.19
2018-05-11T21:45:19.559Z,99838.55
2018-05-11T21:47:48.036Z,99835.72
2018-05-11T21:50:16.497Z,99847.45
2018-05-11T21:52:44.994Z,99855.87
2018-05-11T21:55:13.480Z,99844.66
2018-05-11T21:57:41.984Z,99837.19
2018-05-11T22:00:10.541Z,99846.75
2018-05-11T22:02:39.036Z,99857.29
2018-05-11T22:05:07.500Z,99864.36
2018-05-11T22:07:36.005Z,99857.12
2018-05-11T22:10:04.497Z,99864.13
2018-05-11T22:12:32.951Z,99863.58
2018-05-11T22:15:01.468Z,99868.64
2018-05-11T22:17:29.938Z,99867.27
2018-05-11T22:19:58.433Z,99868.23
2018-05-11T22:22:26.920Z,99868.05
2018-05-11T22:24:55.409Z,99860.41
2018-05-11T22:27:23.873Z,99853.25
2018-05-11T22:29:52.368Z,99872.53
2018-05-11T22:32:20.816Z,99874.42
2018-05-11T22:34:49.342Z,99871.14
2018-05-11T22:37:17.809Z,99875.64
2018-05-11T22:39:46.296Z,99876.41
2018-05-11T22:42:14.740Z,99872.11
2018-05-11T22:44:43.227Z,99868.47
2018-05-11T22:47:11.720Z,99873.78
2018-05-11T22:49:40.247Z,99876.87
2018-05-11T22:52:08.756Z,99870.09
2018-05-11T22:54:37.260Z,99874.78
2018-05-11T22:57:05.762Z,99886.13
2018-05-11T22:59:34.272Z,99878.08
2018-05-11T23:02:02.758Z,99880.40
2018-05-11T23:04:31.243Z,99888.87
2018-05-11T23:06:59.772Z,99886.42
2018-05-11T23:09:28.269Z,99890.23
2018-05-11T23:11:56.779Z,99891.48
2018-05-11T23:14:25.288Z,99893.66
2018-05-11T23:16:53.729Z,99900.75
2018-05-11T23:19:22.193Z,99891.84
2018-05-11T23:21:50.705Z,99897.56
2018-05-11T23:24:19.193Z,99902.73
2018-05-11T23:26:47.694Z,99899.30
2018-05-11T23:29:16.152Z,99891.50
2018-05-11T23:31:44.661Z,99895.64
2018-05-11T23:34:13.161Z,99892.48
2018-05-11T23:36:41.621Z,99904.23
2018-05-11T23:39:10.120Z,99909.67
2018-05-11T23:41:38.605Z,99897.62
2018-05-11T23:44:07.056Z,99904.16
2018-05-11T23:46:35.471Z,99902.92
2018-05-11T23:49:03.943Z,99898.66
2018-05-11T23:51:32.352Z,99890.02
2018-05-11T23:54:00.797Z,99896.59
2018-05-11T23:56:29.238Z,99892.55
2018-05-11T23:58:57.732Z,99895.38
